Excelsior, Minnesota
Current Conditions -  °F | °C
As of 9:53 PM on Thursday 27 Nov 2014 (Local Time) from KFCM Reporting Station
Overcast Overcast  
Wind Chill: -21°   Ceiling: 5500
Heat Index: -14°   Visibility: 10mi
Dew Point: -20°   Wind: 8mph
Humidity: 61%   Direction: 170°S
Pressure: 30.3"   Gusts: NA
Location:  44.9°N, 93.57°W
Report Text: KFCM 280353Z AUTO 17007KT 10SM BKN055 OVC065 M14/M20 A3030 RMK AO2 SLP283 T11391200
Loading
Personal Weather Stations






























Interactive Weather Map New forecast layout! Learn more

10-Day Weather Forecast

Advertisements
Track Severe Weather on mobile